Time;durP1;ratioP1;P1;durP2;ratioP2;P2;SDS_P1;SDS_P2;PMS_P1;PMS_P2;Temp;Humidity;BMP_temperature;BMP_pressure;BME280_temperature;BME280_humidity;BME280_pressure;Samples;Min_cycle;Max_cycle;Signal;HPM_P1;HPM_P2
2024/04/16 00:05:09;;;;;;;13.38;4.60;;;11.00;99.90;;;;;;22515939;26;20026;-39
2024/04/16 00:15:11;;;;;;;10.90;5.18;;;10.70;99.90;;;;;;22665221;26;20851;-38
2024/04/16 00:25:13;;;;;;;11.88;5.50;;;10.40;99.90;;;;;;22568192;26;20035;-38
2024/04/16 00:35:15;;;;;;;10.90;5.05;;;10.90;99.90;;;;;;22560737;26;20030;-39
2024/04/16 00:45:17;;;;;;;13.85;5.10;;;10.70;99.90;;;;;;22592938;26;20034;-43
2024/04/16 00:55:24;;;;;;;14.60;5.07;;;10.60;99.90;;;;;;22650517;26;20030;-39
2024/04/16 01:05:27;;;;;;;11.35;4.88;;;9.90;99.90;;;;;;22714248;26;20371;-38
2024/04/16 01:15:29;;;;;;;12.32;5.03;;;10.50;99.90;;;;;;22681918;26;20108;-39
2024/04/16 01:25:35;;;;;;;15.07;5.53;;;10.00;99.90;;;;;;22628942;26;20033;-38
2024/04/16 01:35:37;;;;;;;13.77;5.78;;;9.60;99.90;;;;;;22711661;26;20057;-38
2024/04/16 01:45:39;;;;;;;12.48;5.22;;;9.50;99.90;;;;;;22712491;26;20034;-40
2024/04/16 01:55:40;;;;;;;15.35;5.50;;;9.80;99.90;;;;;;22574264;26;20034;-39
2024/04/16 02:05:42;;;;;;;13.00;6.45;;;9.80;99.90;;;;;;22711121;26;20028;-40
2024/04/16 02:15:51;;;;;;;11.48;5.75;;;9.90;99.90;;;;;;22678916;26;20037;-39
2024/04/16 02:25:54;;;;;;;12.82;5.88;;;10.20;99.90;;;;;;22710129;26;20069;-39
2024/04/16 02:36:00;;;;;;;16.67;6.13;;;10.10;99.90;;;;;;22663130;26;19994;-38
2024/04/16 02:46:03;;;;;;;14.35;6.35;;;10.30;99.90;;;;;;22575878;26;20030;-39
2024/04/16 02:56:05;;;;;;;12.13;5.90;;;9.90;99.90;;;;;;22635935;26;20068;-39
2024/04/16 03:06:07;;;;;;;10.20;5.85;;;10.10;99.90;;;;;;22627625;26;20453;-39
2024/04/16 03:16:12;;;;;;;13.35;7.00;;;10.10;99.90;;;;;;22572889;26;20026;-39
2024/04/16 03:26:17;;;;;;;15.88;8.75;;;9.90;99.90;;;;;;22550833;26;20468;-38
2024/04/16 03:36:18;;;;;;;17.83;8.60;;;9.50;99.90;;;;;;22520321;26;20022;-39
2024/04/16 03:46:20;;;;;;;13.30;8.00;;;9.50;99.90;;;;;;22648294;26;20031;-40
2024/04/16 03:56:22;;;;;;;14.05;8.25;;;9.90;99.90;;;;;;22463157;26;19999;-38
2024/04/16 04:06:24;;;;;;;17.08;9.13;;;9.80;99.90;;;;;;22506836;26;20009;-40
2024/04/16 04:16:26;;;;;;;16.50;9.40;;;9.70;99.90;;;;;;22509420;26;19999;-38
2024/04/16 04:26:27;;;;;;;19.23;9.20;;;9.50;99.90;;;;;;22658647;26;20042;-40
2024/04/16 04:36:32;;;;;;;18.75;8.50;;;9.50;99.90;;;;;;22663384;26;20541;-39
2024/04/16 04:46:34;;;;;;;20.75;10.23;;;9.30;99.90;;;;;;22565571;26;20096;-39
2024/04/16 04:56:36;;;;;;;13.40;8.68;;;9.20;99.90;;;;;;22548699;26;20050;-39
2024/04/16 05:06:40;;;;;;;13.88;9.80;;;9.30;99.90;;;;;;22580593;26;20034;-39
2024/04/16 05:16:42;;;;;;;16.60;10.63;;;9.20;99.90;;;;;;22659630;26;20038;-38
2024/04/16 05:26:44;;;;;;;17.15;9.07;;;9.10;99.90;;;;;;22623053;26;20030;-39
2024/04/16 05:36:46;;;;;;;13.07;8.82;;;9.40;99.90;;;;;;22713009;26;20076;-39
2024/04/16 05:46:48;;;;;;;15.02;7.70;;;9.70;99.90;;;;;;22701985;26;20003;-39
2024/04/16 05:56:50;;;;;;;13.45;8.10;;;10.00;99.90;;;;;;22640978;26;20034;-39
2024/04/16 06:06:52;;;;;;;12.98;8.45;;;10.20;99.90;;;;;;22563279;26;20093;-39
2024/04/16 06:16:54;;;;;;;16.48;8.88;;;10.40;99.90;;;;;;22560150;26;20089;-39
2024/04/16 06:26:56;;;;;;;13.60;9.02;;;10.70;99.90;;;;;;22528513;26;20022;-39
2024/04/16 06:36:58;;;;;;;12.90;6.97;;;10.90;99.90;;;;;;22561677;26;20026;-39
2024/04/16 06:46:59;;;;;;;12.25;6.50;;;12.30;99.90;;;;;;22555558;26;20066;-40
2024/04/16 06:57:01;;;;;;;7.72;5.03;;;13.70;99.90;;;;;;22668882;26;20027;-42
2024/04/16 07:07:03;;;;;;;9.10;5.22;;;14.60;99.90;;;;;;22708349;26;20104;-41
2024/04/16 07:17:05;;;;;;;12.20;5.55;;;15.20;99.90;;;;;;22540594;26;20038;-41
2024/04/16 07:27:10;;;;;;;12.60;7.50;;;14.80;99.90;;;;;;22545893;26;20073;-40
2024/04/16 07:37:11;;;;;;;14.00;7.40;;;13.10;99.90;;;;;;22555548;26;20056;-41
2024/04/16 07:47:13;;;;;;;18.40;6.97;;;13.80;99.90;;;;;;22550979;26;20030;-41
2024/04/16 07:57:15;;;;;;;8.98;5.00;;;15.10;99.90;;;;;;22531805;26;20046;-41
2024/04/16 08:07:19;;;;;;;11.75;6.40;;;16.40;99.90;;;;;;22540523;26;20448;-41
2024/04/16 08:17:21;;;;;;;17.13;7.28;;;17.00;99.90;;;;;;22552093;26;20089;-41
2024/04/16 08:27:23;;;;;;;14.85;8.48;;;16.30;99.90;;;;;;22548917;26;20026;-41
2024/04/16 08:37:25;;;;;;;12.13;9.05;;;15.00;99.90;;;;;;22545330;26;20031;-41
2024/04/16 08:47:28;;;;;;;17.50;10.85;;;16.80;99.90;;;;;;22363682;26;20000;-41
2024/04/16 08:57:33;;;;;;;37.13;11.13;;;15.10;99.90;;;;;;22239340;26;20022;-42
2024/04/16 09:07:38;;;;;;;13.68;8.65;;;14.30;99.90;;;;;;22244985;26;20011;-41
2024/04/16 09:17:54;;;;;;;17.92;9.57;;;14.30;99.90;;;;;;22355237;26;19999;-42
2024/04/16 09:27:57;;;;;;;14.38;10.63;;;15.60;99.90;;;;;;22558626;26;20050;-41
2024/04/16 09:38:05;;;;;;;15.10;9.35;;;14.90;99.90;;;;;;22611699;26;20030;-44
2024/04/16 09:48:08;;;;;;;13.30;8.07;;;15.50;99.90;;;;;;22611578;26;20031;-39
2024/04/16 09:58:15;;;;;;;15.02;10.27;;;16.00;99.90;;;;;;22574019;26;20065;-42
2024/04/16 10:08:17;;;;;;;14.32;10.60;;;16.40;99.90;;;;;;22558002;26;20049;-40
2024/04/16 10:18:21;;;;;;;19.13;10.88;;;15.70;99.90;;;;;;22554190;26;20093;-42
2024/04/16 10:28:30;;;;;;;14.70;10.55;;;16.20;99.90;;;;;;22593757;26;20027;-41
2024/04/16 10:38:38;;;;;;;19.48;10.30;;;16.80;99.90;;;;;;22519816;26;20081;-42
2024/04/16 10:48:42;;;;;;;14.98;11.27;;;16.70;99.90;;;;;;22547660;26;20027;-42
2024/04/16 10:58:45;;;;;;;13.85;10.35;;;15.80;99.90;;;;;;22557239;26;20026;-42
2024/04/16 11:08:47;;;;;;;14.43;10.18;;;15.80;99.90;;;;;;22555672;26;20035;-40
2024/04/16 11:18:49;;;;;;;6.43;2.90;;;15.80;99.90;;;;;;22551190;26;20043;-39
2024/04/16 11:28:52;;;;;;;13.52;6.85;;;13.80;99.90;;;;;;22550435;26;20038;-39
2024/04/16 11:38:54;;;;;;;18.83;10.23;;;11.30;99.90;;;;;;22598423;26;20100;-39
2024/04/16 11:48:55;;;;;;;3.00;0.77;;;11.00;99.90;;;;;;22552106;26;20074;-39
2024/04/16 11:58:57;;;;;;;3.40;0.85;;;10.10;99.90;;;;;;22554283;26;20549;-40
2024/04/16 12:08:59;;;;;;;9.32;1.20;;;7.80;99.90;;;;;;22554831;26;20029;-42
2024/04/16 12:19:01;;;;;;;2.35;1.10;;;4.90;99.90;;;;;;22554333;26;20066;-40
2024/04/16 12:29:06;;;;;;;6.03;2.05;;;4.20;99.90;;;;;;22548000;26;20035;-39
2024/04/16 12:39:07;;;;;;;4.47;3.05;;;5.70;99.90;;;;;;22562201;26;20038;-43
2024/04/16 12:49:09;;;;;;;0.90;0.10;;;4.80;99.90;;;;;;22580348;26;20038;-39
2024/04/16 12:59:13;;;;;;;0.15;0.08;;;5.30;99.90;;;;;;22604376;26;20085;-39
2024/04/16 13:09:15;;;;;;;0.57;0.00;;;7.70;99.90;;;;;;22575808;26;20121;-39
2024/04/16 13:19:19;;;;;;;0.10;0.00;;;9.60;99.90;;;;;;22575279;26;20027;-39
2024/04/16 13:29:21;;;;;;;0.30;0.03;;;10.20;99.50;;;;;;22574438;26;20034;-39
2024/04/16 13:39:23;;;;;;;3.40;0.30;;;10.60;95.70;;;;;;22577316;26;20027;-39
2024/04/16 13:49:25;;;;;;;0.28;0.00;;;11.00;95.00;;;;;;22566204;26;20484;-39
2024/04/16 13:59:28;;;;;;;0.57;0.10;;;11.50;93.10;;;;;;22558801;26;20093;-40
2024/04/16 14:09:30;;;;;;;0.77;0.00;;;11.90;88.90;;;;;;22563208;26;20031;-39
2024/04/16 14:19:32;;;;;;;0.20;0.20;;;12.20;87.40;;;;;;22560081;26;20030;-40
2024/04/16 14:29:34;;;;;;;2.60;0.00;;;12.40;84.00;;;;;;22574891;26;20477;-39
2024/04/16 14:39:36;;;;;;;0.47;0.05;;;12.20;81.20;;;;;;22561216;26;20027;-39
2024/04/16 14:49:38;;;;;;;1.55;0.05;;;11.90;80.20;;;;;;22555336;26;20891;-39
2024/04/16 14:59:39;;;;;;;0.08;0.00;;;11.00;79.00;;;;;;22560011;26;20056;-40
2024/04/16 15:09:43;;;;;;;1.08;0.10;;;10.60;82.10;;;;;;22554877;26;20450;-39
2024/04/16 15:19:44;;;;;;;0.20;0.00;;;11.00;78.60;;;;;;22521563;26;20030;-38
2024/04/16 15:29:46;;;;;;;1.13;0.00;;;10.70;73.00;;;;;;22521515;26;20077;-39
2024/04/16 15:39:51;;;;;;;0.60;0.00;;;10.10;70.20;;;;;;22551141;26;20096;-39
2024/04/16 15:49:53;;;;;;;2.95;0.08;;;9.80;68.90;;;;;;22556647;26;20085;-39
2024/04/16 15:59:55;;;;;;;0.05;0.03;;;10.00;71.20;;;;;;22573051;26;20431;-39
2024/04/16 16:10:00;;;;;;;0.08;0.00;;;9.80;65.80;;;;;;22548827;26;20003;-38
2024/04/16 16:20:04;;;;;;;0.30;0.00;;;9.60;68.50;;;;;;22549388;26;20030;-38
2024/04/16 16:30:06;;;;;;;0.40;0.10;;;9.50;68.40;;;;;;22548392;26;20030;-38
2024/04/16 16:40:08;;;;;;;0.20;0.00;;;9.40;69.00;;;;;;22549087;26;20030;-38
2024/04/16 16:50:13;;;;;;;0.10;0.00;;;9.20;66.40;;;;;;22557623;26;20026;-38
2024/04/16 17:00:15;;;;;;;0.20;0.10;;;9.10;66.80;;;;;;22677969;26;20003;-38
2024/04/16 17:10:17;;;;;;;0.15;0.00;;;8.80;68.20;;;;;;22634353;26;20438;-38
2024/04/16 17:20:22;;;;;;;0.88;0.10;;;8.50;61.90;;;;;;22699023;26;20077;-38
2024/04/16 17:30:24;;;;;;;0.00;0.00;;;8.60;64.70;;;;;;22710845;26;20026;-38
2024/04/16 17:40:26;;;;;;;0.00;0.00;;;8.40;68.70;;;;;;22565313;26;20034;-38
2024/04/16 17:50:28;;;;;;;0.43;0.10;;;8.00;68.40;;;;;;22572924;26;20034;-38
2024/04/16 18:00:30;;;;;;;0.70;0.20;;;7.90;69.40;;;;;;22701218;26;20383;-38
2024/04/16 18:10:32;;;;;;;0.10;0.00;;;7.60;72.50;;;;;;22649724;26;20026;-38
2024/04/16 18:20:36;;;;;;;0.30;0.00;;;7.50;68.80;;;;;;22708942;26;20030;-38
2024/04/16 18:30:38;;;;;;;0.05;0.00;;;7.50;70.60;;;;;;22710293;26;20552;-37
2024/04/16 18:40:40;;;;;;;0.25;0.00;;;7.30;69.00;;;;;;22662543;26;20073;-37
2024/04/16 18:50:47;;;;;;;0.28;0.00;;;7.00;68.00;;;;;;22656025;26;20029;-38
2024/04/16 19:00:50;;;;;;;0.75;0.10;;;6.40;74.50;;;;;;22702357;26;20030;-38
2024/04/16 19:10:52;;;;;;;0.82;0.08;;;6.10;76.40;;;;;;22617874;26;20379;-37
2024/04/16 19:20:55;;;;;;;2.75;0.10;;;5.90;78.10;;;;;;22545055;26;20088;-37
2024/04/16 19:30:58;;;;;;;1.88;0.57;;;5.40;77.40;;;;;;22707462;26;20061;-37
2024/04/16 19:41:00;;;;;;;0.50;0.20;;;5.20;81.50;;;;;;22706973;26;20030;-37
2024/04/16 19:51:02;;;;;;;2.30;0.10;;;5.00;79.70;;;;;;22581019;26;20025;-37
2024/04/16 20:01:06;;;;;;;0.30;0.08;;;4.90;78.60;;;;;;22705708;26;20041;-37
2024/04/16 20:11:10;;;;;;;0.98;0.10;;;4.90;78.50;;;;;;22704066;26;20030;-37
2024/04/16 20:21:12;;;;;;;0.77;0.00;;;4.40;83.70;;;;;;22703478;26;20031;-37
2024/04/16 20:31:14;;;;;;;0.45;0.00;;;4.00;85.80;;;;;;22702964;26;20026;-37
2024/04/16 20:41:16;;;;;;;1.98;0.00;;;3.70;82.70;;;;;;22654813;26;20091;-37
2024/04/16 20:51:20;;;;;;;0.82;0.00;;;3.70;87.00;;;;;;22646332;26;20030;-37
2024/04/16 21:01:24;;;;;;;0.35;0.00;;;3.30;85.70;;;;;;22708984;26;20440;-37
2024/04/16 21:11:26;;;;;;;0.00;0.00;;;3.20;87.60;;;;;;22708482;26;20096;-37
2024/04/16 21:21:28;;;;;;;0.08;0.00;;;3.30;83.30;;;;;;22591834;26;20438;-37
2024/04/16 21:31:30;;;;;;;0.13;0.00;;;3.30;85.60;;;;;;22178027;26;20007;-37
2024/04/16 21:41:32;;;;;;;0.13;0.00;;;3.10;90.00;;;;;;22108592;26;20001;-37
2024/04/16 21:51:34;;;;;;;0.15;0.10;;;2.80;91.20;;;;;;21994086;26;20015;-37
2024/04/16 22:01:35;;;;;;;0.00;0.00;;;2.30;92.30;;;;;;22152500;26;20103;-37
2024/04/16 22:11:37;;;;;;;1.90;0.00;;;1.80;93.40;;;;;;22411886;26;20027;-37
2024/04/16 22:21:39;;;;;;;0.17;0.00;;;1.60;93.90;;;;;;22411724;26;20031;-37
2024/04/16 22:31:41;;;;;;;0.38;0.00;;;1.40;93.90;;;;;;22510133;26;20030;-37
2024/04/16 22:41:46;;;;;;;1.95;0.10;;;1.20;95.60;;;;;;22665480;26;20096;-37
2024/04/16 22:51:47;;;;;;;0.03;0.00;;;1.10;97.40;;;;;;22656541;26;20099;-37
2024/04/16 23:01:49;;;;;;;1.77;0.00;;;0.80;95.80;;;;;;22709117;26;20487;-37
2024/04/16 23:11:51;;;;;;;0.00;0.00;;;0.60;98.10;;;;;;22694900;26;20030;-37
2024/04/16 23:21:52;;;;;;;0.10;0.00;;;0.50;96.70;;;;;;22558891;26;20026;-37
2024/04/16 23:31:54;;;;;;;1.23;0.28;;;0.30;99.00;;;;;;22645277;26;20091;-37
2024/04/16 23:41:56;;;;;;;0.13;0.00;;;0.20;98.80;;;;;;22666768;26;20484;-37
2024/04/16 23:51:58;;;;;;;0.28;0.00;;;0.00;98.90;;;;;;22568785;26;20100;-38
